Down Up Stop Top
)

OHZ055
There are no active watches, warnings or advisories

Record high temperature 104.2°F Record low temperature -13.0°F Record high gust 50.9 mph Record high average 34.5 mph Record daily rain 3.21 in. Record low windchill -32.3°F Record high barometer 30.918 in. Record low barometer 29.140 in.
Daily high pressure 30.498 in. Daily low pressure 30.481 in. Daily low windchill 20.1°F Daily high heat index 23.9°F Daily high gust speed 0 mph NE Daily high average speed 0 mph NW
Groveport, OH Weather
LAST READING AT TIME: 03:30 DATE: March 08 2021, time of next update: 03:45
Current Weathermostly clear/Night Current Temperature 20.2°F (-6.6°C), Apparent temp 16.0°F
Maximum Temperature (since midnight)23.9°F at: 00:01 Minimum Temperature (since midnight)20.1°F at: 03:25
Average windspeed (ten minute)0.0 mph Wind Direction (ten minute)NW (315°)
Windchill Temperature 20.2°F Maximum Gust (last hour)0.0 mph at: 03:00
Maximum Gust (since midnight)0.0 mph at: 08:35 Maximum 1 minute average (since midnight)0.0 mph at: 13:11
Rainfall (last hour)0.00 in. (0.0 mm) Rainfall (since midnight)0.00 in. (0.0 mm) ---
Rainfall This month 0.14 in. (3.6 mm) Rainfall To date this year 2.49 in. (63.2 mm)
Maximum rain per minute (last hour)0.00 in/min Maximum rain per hour (last 6 hours)0.00 in/hour
Yesterdays rainfall 0.00 in DewPoint 17.0°F (Wet Bulb :19.3°F )
Humidity 87 %, Humidex 13.5°F Barometer corrected to msl30.50 in. (1032.8 hPa)
Pressure change 0.00 in. (last hour) Trend (last hour)STEADY
Pressure change (last 12 hours)+0.07 in Pressure change (last 6 hours)+0.02 in
Current Indoor Temp. 64.1°F
Current Indoor Hum. 42%

This page is updated from recent data collected by a DAVIS VANTAGE PRO weather station Use the Reload or Refresh facility on your browser to retrieve the latest data.

Status report of weather station: On line since March 2007


Click here for the last 24 hour graph
Click here for the last 48 hour graph
Click here for the last 72 hour graph
Click here for the month to date graph

Latest Web Cam Image


Weather report/warning/Metars

Expires:202103082200;;645246
FPUS51 KILN 080807
ZFPILN

Zone Forecast Product
National Weather Service Wilmington OH
306 AM EST Mon Mar 8 2021


OHZ055-082200-
Franklin OH-
Including the city of Columbus
306 AM EST Mon Mar 8 2021

.TODAY...Mostly sunny. Warmer with highs in the lower 60s.
Southwest winds 10 to 15 mph. 
.TONIGHT...Mostly clear. Lows in the upper 30s. Southwest winds
5 to 10 mph. 
.TUESDAY...Mostly sunny in the morning, then becoming partly
cloudy. Highs in the mid 60s. Southwest winds 5 to 10 mph. 
.TUESDAY NIGHT...Mostly clear. Lows in the lower 40s. South winds
5 to 10 mph. 
.WEDNESDAY...Partly cloudy in the morning, then becoming mostly
cloudy. Highs in the mid 60s. South winds 15 to 20 mph with gusts
up to 30 mph. 
.WEDNESDAY NIGHT...Mostly cloudy. A chance of showers after
midnight. Warmer with lows in the mid 50s. Chance of rain
30 percent. 
.THURSDAY...Mostly cloudy. A chance of showers in the morning,
then showers likely in the afternoon. Highs in the mid 60s.
Chance of rain 60 percent. 
.THURSDAY NIGHT...Showers. Unseasonably warm with lows in the
lower 50s. Chance of rain 80 percent. 
.FRIDAY...Mostly cloudy. Showers likely, mainly in the morning.
Highs in the lower 60s. Chance of rain 60 percent. 
.FRIDAY NIGHT...Mostly cloudy with a 50 percent chance of
showers. Lows in the lower 40s. 
.SATURDAY...Mostly cloudy with a 30 percent chance of showers.
Highs in the lower 50s. 
.SATURDAY NIGHT...Partly cloudy. A chance of rain showers in the
evening, then a chance of rain and snow showers after midnight.
Lows in the mid 30s. Chance of precipitation 30 percent. 
.SUNDAY...Partly cloudy. A chance of rain and snow showers in the
morning, then a chance of rain showers in the afternoon. Highs in
the upper 40s. Chance of precipitation 30 percent. 

$$


Expires:202103081000;;641737
FPUS51 KBUF 080533
ZFPBUF

Zone Forecasts for Western New York
National Weather Service Buffalo NY
1230 AM EST Mon Mar 8 2021


NYZ010-081000-
Northern Erie-
Including the city of Buffalo
1230 AM EST Mon Mar 8 2021

.OVERNIGHT...Mainly clear. Lows ranging from 10 to 15 inland to
around 20 along the Lake Erie shore. Light southwest winds. 
.MONDAY...Partly to mostly sunny. Not as cold with highs in the mid
40s. Light winds, becoming southwest 10 to 15 mph. 
.MONDAY NIGHT...Partly to mostly cloudy. Lows in the lower 30s.
Southwest winds 10 to 15 mph, becoming west 5 to 10 mph. 
.TUESDAY...Mostly sunny. Highs ranging from the mid 40s along the
Lake Erie shore to the upper 40s inland. Light winds. 
.TUESDAY NIGHT...Partly cloudy. Lows in the mid 30s. Light winds. 
.WEDNESDAY...Mostly sunny. Highs in the upper 50s. 
.WEDNESDAY NIGHT...Mostly cloudy with a 50 percent chance of
showers. Lows around 50. 
.THURSDAY AND THURSDAY NIGHT...Showers likely. Highs in the lower
60s. Lows in the lower 40s. Chance of rain 70 percent. 
.FRIDAY...Showers likely. Highs in the upper 40s. Chance of rain
70 percent. 
.FRIDAY NIGHT...Partly cloudy. Lows in the upper 20s. 
.SATURDAY AND SATURDAY NIGHT...Mostly cloudy. Highs in the lower
40s. Lows in the mid 20s. 
.SUNDAY...Partly sunny. Highs in the upper 30s. 

$$


PORT COLUMBUS INTERNATIONAL  AIRPORT, OH, United States (KCMH) 40-00N 82-53W 247M
Mar 08, 2021 - 02:51 AM EST / 2021.03.08 0751 UTC
Wind: Calm:0
Visibility: 10 mile(s):0
Sky conditions: mostly clear
Temperature: 23.0 F (-5.0 C)
Dew Point: 19.9 F (-6.7 C)
Relative Humidity: 87%
Pressure (altimeter): 30.46 in. Hg (1031 hPa)
ob: KCMH 080751Z 00000KT 10SM FEW250 M05/M07 A3046 RMK AO2 SLP322 T10501067
cycle: 8
BOSTON LOGAN INTERNATIONAL, MA, United States (KBOS) 42-22N 071-01W 54M
Mar 08, 2021 - 02:54 AM EST / 2021.03.08 0754 UTC
Wind: from the WNW (300 degrees) at 10 MPH (9 KT):0
Visibility: 10 mile(s):0
Sky conditions: clear
Temperature: 28.0 F (-2.2 C)
Windchill: 19 F (-7 C):1
Dew Point: 8.1 F (-13.3 C)
Relative Humidity: 42%
Pressure (altimeter): 30.32 in. Hg (1026 hPa)
ob: KBOS 080754Z 30009KT 10SM CLR M02/M13 A3032 RMK AO2 SLP268 T10221133 
cycle: 8
GREATER BUFFALO INTERNATIONAL  AIRPORT , NY, United States (KBUF) 42-56N 078-44W 225M
Mar 08, 2021 - 02:54 AM EST / 2021.03.08 0754 UTC
Wind: from the SSW (210 degrees) at 5 MPH (4 KT):0
Visibility: 10 mile(s):0
Sky conditions: partly cloudy
Temperature: 19.9 F (-6.7 C)
Windchill: 12 F (-11 C):1
Dew Point: 12.0 F (-11.1 C)
Relative Humidity: 70%
Pressure (altimeter): 30.42 in. Hg (1030 hPa)
ob: KBUF 080754Z 21004KT 10SM SCT250 M07/M11 A3042 RMK AO2 SLP312 T10671111 
cycle: 8
HARTSFIELD-JACKSON ATLANTA, GA, United States (KATL) 33-39N 84-26W
Mar 08, 2021 - 02:52 AM EST / 2021.03.08 0752 UTC
Wind: from the NNW (330 degrees) at 6 MPH (5 KT):0
Visibility: 10 mile(s):0
Sky conditions: mostly clear
Temperature: 42.1 F (5.6 C)
Dew Point: 23.0 F (-5.0 C)
Relative Humidity: 46%
Pressure (altimeter): 30.44 in. Hg (1030 hPa)
ob: KATL 080752Z 33005KT 10SM FEW250 06/M05 A3044 RMK AO2 SLP310 T00561050 
cycle: 8
GREATER ROCHESTER INTERNATIONAL , NY, United States (KROC) 43-07N 077-41W 178M
Mar 08, 2021 - 02:54 AM EST / 2021.03.08 0754 UTC
Wind: from the SW (230 degrees) at 3 MPH (3 KT):0
Visibility: 10 mile(s):0
Sky conditions: clear
Temperature: 16.0 F (-8.9 C)
Dew Point: 12.9 F (-10.6 C)
Relative Humidity: 87%
Pressure (altimeter): 30.41 in. Hg (1029 hPa)
ob: KROC 080754Z 23003KT 10SM CLR M09/M11 A3041 RMK AO2 SLP311 T10891106
cycle: 8
HYANNIS BARNSTABLE BOARDMN, MA, United States (KHYA) 41-40N 070-16W 22M
Mar 08, 2021 - 02:56 AM EST / 2021.03.08 0756 UTC
Wind: from the WNW (290 degrees) at 3 MPH (3 KT):0
Visibility: 10 mile(s):0
Sky conditions: clear
Temperature: 24.1 F (-4.4 C)
Dew Point: 15.1 F (-9.4 C)
Relative Humidity: 68%
Pressure (altimeter): 30.28 in. Hg (1025 hPa)
ob: KHYA 080756Z AUTO 29003KT 10SM CLR M04/M09 A3028 RMK AO2 SLP257 T10441094
cycle: 8



The data is logged at two minute intervals, but there is data recorded every minute.

Use the RELOAD facility on your browser to retrieve the latest data.

Click here for a daily update of the averages/extremes to date for the month

Created by "Weather Display" software version 10.37S at this start time/date 01:04:44 3/5/2021